sensor_id;sensor_type;location;lat;lon;timestamp;P1;durP1;ratioP1;P2;durP2;ratioP2
40637;SDS011;26336;44.696;10.622;2023-07-16T00:01:03;6.35;;;3.72;;
40637;SDS011;26336;44.696;10.622;2023-07-16T00:04:07;6.55;;;4.35;;
40637;SDS011;26336;44.696;10.622;2023-07-16T00:07:11;6.03;;;3.85;;
40637;SDS011;26336;44.696;10.622;2023-07-16T00:10:17;7.15;;;4.30;;
40637;SDS011;26336;44.696;10.622;2023-07-16T00:13:21;5.72;;;4.28;;
40637;SDS011;26336;44.696;10.622;2023-07-16T00:16:25;6.72;;;4.20;;
40637;SDS011;26336;44.696;10.622;2023-07-16T00:19:29;7.65;;;4.55;;
40637;SDS011;26336;44.696;10.622;2023-07-16T00:22:33;5.53;;;4.28;;
40637;SDS011;26336;44.696;10.622;2023-07-16T00:25:37;7.07;;;3.85;;
40637;SDS011;26336;44.696;10.622;2023-07-16T00:28:41;5.38;;;3.75;;
40637;SDS011;26336;44.696;10.622;2023-07-16T00:31:45;9.13;;;4.25;;
40637;SDS011;26336;44.696;10.622;2023-07-16T00:34:50;6.90;;;3.97;;
40637;SDS011;26336;44.696;10.622;2023-07-16T00:37:54;6.35;;;4.28;;
40637;SDS011;26336;44.696;10.622;2023-07-16T00:40:58;6.10;;;4.15;;
40637;SDS011;26336;44.696;10.622;2023-07-16T00:44:04;5.20;;;4.07;;
40637;SDS011;26336;44.696;10.622;2023-07-16T00:47:08;7.63;;;4.40;;
40637;SDS011;26336;44.696;10.622;2023-07-16T00:50:12;4.38;;;3.75;;
40637;SDS011;26336;44.696;10.622;2023-07-16T00:53:17;12.13;;;4.43;;
40637;SDS011;26336;44.696;10.622;2023-07-16T00:56:23;5.22;;;4.00;;
40637;SDS011;26336;44.696;10.622;2023-07-16T00:59:27;4.47;;;3.40;;
40637;SDS011;26336;44.696;10.622;2023-07-16T01:02:31;8.43;;;4.50;;
40637;SDS011;26336;44.696;10.622;2023-07-16T01:05:41;6.38;;;4.53;;
40637;SDS011;26336;44.696;10.622;2023-07-16T01:12:24;8.05;;;3.83;;
40637;SDS011;26336;44.696;10.622;2023-07-16T01:15:30;4.90;;;4.20;;
40637;SDS011;26336;44.696;10.622;2023-07-16T01:18:34;6.55;;;3.88;;
40637;SDS011;26336;44.696;10.622;2023-07-16T01:31:52;5.97;;;4.32;;
40637;SDS011;26336;44.696;10.622;2023-07-16T01:34:58;8.07;;;3.92;;
40637;SDS011;26336;44.696;10.622;2023-07-16T01:38:03;4.63;;;3.97;;
40637;SDS011;26336;44.696;10.622;2023-07-16T01:41:07;4.78;;;4.22;;
40637;SDS011;26336;44.696;10.622;2023-07-16T01:44:11;7.07;;;4.20;;
40637;SDS011;26336;44.696;10.622;2023-07-16T01:47:17;8.50;;;4.07;;
40637;SDS011;26336;44.696;10.622;2023-07-16T01:50:43;7.75;;;3.88;;
40637;SDS011;26336;44.696;10.622;2023-07-16T01:53:46;6.85;;;4.13;;
40637;SDS011;26336;44.696;10.622;2023-07-16T01:56:51;6.32;;;3.90;;
40637;SDS011;26336;44.696;10.622;2023-07-16T01:59:55;4.03;;;3.40;;
40637;SDS011;26336;44.696;10.622;2023-07-16T02:02:58;7.85;;;4.28;;
40637;SDS011;26336;44.696;10.622;2023-07-16T02:06:02;5.38;;;3.83;;
40637;SDS011;26336;44.696;10.622;2023-07-16T02:09:06;5.40;;;3.45;;
40637;SDS011;26336;44.696;10.622;2023-07-16T02:12:12;7.10;;;4.18;;
40637;SDS011;26336;44.696;10.622;2023-07-16T02:15:16;4.82;;;3.28;;
40637;SDS011;26336;44.696;10.622;2023-07-16T02:18:21;6.63;;;4.18;;
40637;SDS011;26336;44.696;10.622;2023-07-16T02:21:25;9.25;;;4.20;;
40637;SDS011;26336;44.696;10.622;2023-07-16T02:24:29;6.97;;;4.05;;
40637;SDS011;26336;44.696;10.622;2023-07-16T02:27:33;4.78;;;3.53;;
40637;SDS011;26336;44.696;10.622;2023-07-16T02:30:37;7.03;;;3.25;;
40637;SDS011;26336;44.696;10.622;2023-07-16T02:33:43;5.90;;;3.88;;
40637;SDS011;26336;44.696;10.622;2023-07-16T02:36:47;6.22;;;3.20;;
40637;SDS011;26336;44.696;10.622;2023-07-16T02:39:51;4.32;;;3.55;;
40637;SDS011;26336;44.696;10.622;2023-07-16T02:42:55;6.32;;;3.30;;
40637;SDS011;26336;44.696;10.622;2023-07-16T02:45:59;5.20;;;3.42;;
40637;SDS011;26336;44.696;10.622;2023-07-16T02:49:03;4.07;;;3.47;;
40637;SDS011;26336;44.696;10.622;2023-07-16T02:52:07;4.82;;;2.85;;
40637;SDS011;26336;44.696;10.622;2023-07-16T02:55:11;4.50;;;3.00;;
40637;SDS011;26336;44.696;10.622;2023-07-16T02:58:15;7.47;;;3.95;;
40637;SDS011;26336;44.696;10.622;2023-07-16T03:01:20;4.88;;;2.88;;
40637;SDS011;26336;44.696;10.622;2023-07-16T03:04:24;3.75;;;3.20;;
40637;SDS011;26336;44.696;10.622;2023-07-16T03:07:29;3.85;;;3.33;;
40637;SDS011;26336;44.696;10.622;2023-07-16T03:10:33;4.82;;;3.17;;
40637;SDS011;26336;44.696;10.622;2023-07-16T03:13:37;4.53;;;3.33;;
40637;SDS011;26336;44.696;10.622;2023-07-16T03:16:41;3.75;;;3.10;;
40637;SDS011;26336;44.696;10.622;2023-07-16T03:19:47;4.57;;;3.45;;
40637;SDS011;26336;44.696;10.622;2023-07-16T03:22:51;3.67;;;2.88;;
40637;SDS011;26336;44.696;10.622;2023-07-16T03:25:55;4.97;;;3.53;;
40637;SDS011;26336;44.696;10.622;2023-07-16T03:28:59;5.53;;;3.28;;
40637;SDS011;26336;44.696;10.622;2023-07-16T03:32:04;4.43;;;3.53;;
40637;SDS011;26336;44.696;10.622;2023-07-16T03:35:09;5.32;;;3.00;;
40637;SDS011;26336;44.696;10.622;2023-07-16T03:38:13;6.57;;;3.15;;
40637;SDS011;26336;44.696;10.622;2023-07-16T03:41:17;3.15;;;2.85;;
40637;SDS011;26336;44.696;10.622;2023-07-16T03:44:23;5.05;;;3.20;;
40637;SDS011;26336;44.696;10.622;2023-07-16T03:47:27;4.93;;;3.45;;
40637;SDS011;26336;44.696;10.622;2023-07-16T03:50:31;4.90;;;3.65;;
40637;SDS011;26336;44.696;10.622;2023-07-16T03:53:35;4.95;;;3.35;;
40637;SDS011;26336;44.696;10.622;2023-07-16T03:56:38;5.78;;;3.25;;
40637;SDS011;26336;44.696;10.622;2023-07-16T03:59:42;5.00;;;3.20;;
40637;SDS011;26336;44.696;10.622;2023-07-16T04:02:46;3.65;;;3.28;;
40637;SDS011;26336;44.696;10.622;2023-07-16T04:06:03;5.18;;;3.30;;
40637;SDS011;26336;44.696;10.622;2023-07-16T04:09:08;3.53;;;3.22;;
40637;SDS011;26336;44.696;10.622;2023-07-16T04:12:12;3.90;;;3.05;;
40637;SDS011;26336;44.696;10.622;2023-07-16T04:15:16;5.38;;;3.63;;
40637;SDS011;26336;44.696;10.622;2023-07-16T04:18:21;5.78;;;3.28;;
40637;SDS011;26336;44.696;10.622;2023-07-16T04:21:25;5.13;;;3.80;;
40637;SDS011;26336;44.696;10.622;2023-07-16T04:24:28;4.00;;;2.97;;
40637;SDS011;26336;44.696;10.622;2023-07-16T04:27:33;4.80;;;3.53;;
40637;SDS011;26336;44.696;10.622;2023-07-16T04:30:37;4.97;;;3.85;;
40637;SDS011;26336;44.696;10.622;2023-07-16T04:33:41;5.57;;;3.72;;
40637;SDS011;26336;44.696;10.622;2023-07-16T04:36:45;6.97;;;3.53;;
40637;SDS011;26336;44.696;10.622;2023-07-16T04:39:49;4.47;;;3.55;;
40637;SDS011;26336;44.696;10.622;2023-07-16T04:42:53;5.65;;;3.15;;
40637;SDS011;26336;44.696;10.622;2023-07-16T04:45:57;4.18;;;3.28;;
40637;SDS011;26336;44.696;10.622;2023-07-16T04:49:01;3.28;;;2.97;;
40637;SDS011;26336;44.696;10.622;2023-07-16T04:52:08;5.70;;;3.25;;
40637;SDS011;26336;44.696;10.622;2023-07-16T04:55:12;5.25;;;3.40;;
40637;SDS011;26336;44.696;10.622;2023-07-16T04:58:17;7.63;;;3.88;;
40637;SDS011;26336;44.696;10.622;2023-07-16T05:01:21;6.43;;;3.75;;
40637;SDS011;26336;44.696;10.622;2023-07-16T05:04:25;6.32;;;3.80;;
40637;SDS011;26336;44.696;10.622;2023-07-16T05:07:29;4.05;;;3.65;;
40637;SDS011;26336;44.696;10.622;2023-07-16T05:10:33;5.50;;;3.83;;
40637;SDS011;26336;44.696;10.622;2023-07-16T05:13:37;5.45;;;3.72;;
40637;SDS011;26336;44.696;10.622;2023-07-16T05:16:41;4.70;;;4.10;;
40637;SDS011;26336;44.696;10.622;2023-07-16T05:19:45;6.22;;;4.22;;
40637;SDS011;26336;44.696;10.622;2023-07-16T05:22:50;6.18;;;4.00;;
40637;SDS011;26336;44.696;10.622;2023-07-16T05:25:54;6.53;;;3.38;;
40637;SDS011;26336;44.696;10.622;2023-07-16T05:28:58;6.18;;;3.40;;
40637;SDS011;26336;44.696;10.622;2023-07-16T05:32:02;9.70;;;4.10;;
40637;SDS011;26336;44.696;10.622;2023-07-16T05:35:07;6.00;;;4.70;;
40637;SDS011;26336;44.696;10.622;2023-07-16T05:38:11;6.30;;;4.68;;
40637;SDS011;26336;44.696;10.622;2023-07-16T05:41:15;5.88;;;4.40;;
40637;SDS011;26336;44.696;10.622;2023-07-16T05:44:20;6.72;;;4.40;;
40637;SDS011;26336;44.696;10.622;2023-07-16T05:47:24;10.77;;;5.35;;
40637;SDS011;26336;44.696;10.622;2023-07-16T05:50:28;7.75;;;4.70;;
40637;SDS011;26336;44.696;10.622;2023-07-16T05:53:32;6.80;;;5.38;;
40637;SDS011;26336;44.696;10.622;2023-07-16T06:03:03;7.40;;;4.75;;
40637;SDS011;26336;44.696;10.622;2023-07-16T06:06:10;8.27;;;5.30;;
40637;SDS011;26336;44.696;10.622;2023-07-16T06:09:14;6.10;;;4.93;;
40637;SDS011;26336;44.696;10.622;2023-07-16T06:12:18;6.13;;;4.82;;
40637;SDS011;26336;44.696;10.622;2023-07-16T06:15:22;6.43;;;4.65;;
40637;SDS011;26336;44.696;10.622;2023-07-16T06:18:26;8.07;;;5.28;;
40637;SDS011;26336;44.696;10.622;2023-07-16T06:21:29;8.88;;;5.22;;
40637;SDS011;26336;44.696;10.622;2023-07-16T06:24:33;8.65;;;5.35;;
40637;SDS011;26336;44.696;10.622;2023-07-16T06:27:38;5.97;;;4.60;;
40637;SDS011;26336;44.696;10.622;2023-07-16T06:30:42;8.07;;;4.90;;
40637;SDS011;26336;44.696;10.622;2023-07-16T06:33:46;7.78;;;5.07;;
40637;SDS011;26336;44.696;10.622;2023-07-16T06:36:50;8.50;;;4.65;;
40637;SDS011;26336;44.696;10.622;2023-07-16T06:39:54;9.50;;;4.93;;
40637;SDS011;26336;44.696;10.622;2023-07-16T06:42:58;6.35;;;5.03;;
40637;SDS011;26336;44.696;10.622;2023-07-16T06:46:02;5.97;;;4.70;;
40637;SDS011;26336;44.696;10.622;2023-07-16T06:49:07;10.07;;;5.32;;
40637;SDS011;26336;44.696;10.622;2023-07-16T06:52:21;6.35;;;5.20;;
40637;SDS011;26336;44.696;10.622;2023-07-16T06:55:25;7.78;;;5.20;;
40637;SDS011;26336;44.696;10.622;2023-07-16T06:58:33;7.82;;;5.32;;
40637;SDS011;26336;44.696;10.622;2023-07-16T07:01:37;6.90;;;5.65;;
40637;SDS011;26336;44.696;10.622;2023-07-16T07:04:41;8.80;;;5.13;;
40637;SDS011;26336;44.696;10.622;2023-07-16T07:07:44;6.93;;;5.78;;
40637;SDS011;26336;44.696;10.622;2023-07-16T07:10:48;7.72;;;5.50;;
40637;SDS011;26336;44.696;10.622;2023-07-16T07:13:53;9.77;;;6.50;;
40637;SDS011;26336;44.696;10.622;2023-07-16T07:16:57;7.70;;;5.80;;
40637;SDS011;26336;44.696;10.622;2023-07-16T07:20:01;8.75;;;6.45;;
40637;SDS011;26336;44.696;10.622;2023-07-16T07:23:06;6.10;;;4.95;;
40637;SDS011;26336;44.696;10.622;2023-07-16T07:26:10;8.55;;;5.57;;
40637;SDS011;26336;44.696;10.622;2023-07-16T07:29:14;9.18;;;6.13;;
40637;SDS011;26336;44.696;10.622;2023-07-16T07:32:19;8.23;;;6.75;;
40637;SDS011;26336;44.696;10.622;2023-07-16T07:35:24;9.02;;;5.45;;
40637;SDS011;26336;44.696;10.622;2023-07-16T07:38:27;11.10;;;5.45;;
40637;SDS011;26336;44.696;10.622;2023-07-16T07:41:33;8.13;;;5.35;;
40637;SDS011;26336;44.696;10.622;2023-07-16T07:44:37;10.05;;;5.70;;
40637;SDS011;26336;44.696;10.622;2023-07-16T07:47:44;10.05;;;5.28;;
40637;SDS011;26336;44.696;10.622;2023-07-16T07:50:48;7.68;;;4.82;;
40637;SDS011;26336;44.696;10.622;2023-07-16T07:53:52;8.38;;;4.90;;
40637;SDS011;26336;44.696;10.622;2023-07-16T07:56:56;5.93;;;4.72;;
40637;SDS011;26336;44.696;10.622;2023-07-16T08:00:04;7.93;;;4.90;;
40637;SDS011;26336;44.696;10.622;2023-07-16T08:03:15;5.57;;;4.28;;
40637;SDS011;26336;44.696;10.622;2023-07-16T08:06:19;9.95;;;4.93;;
40637;SDS011;26336;44.696;10.622;2023-07-16T08:09:23;7.22;;;4.13;;
40637;SDS011;26336;44.696;10.622;2023-07-16T08:12:29;7.45;;;4.07;;
40637;SDS011;26336;44.696;10.622;2023-07-16T08:15:34;7.72;;;4.78;;
40637;SDS011;26336;44.696;10.622;2023-07-16T08:18:41;6.05;;;4.07;;
40637;SDS011;26336;44.696;10.622;2023-07-16T08:21:45;5.82;;;3.90;;
40637;SDS011;26336;44.696;10.622;2023-07-16T08:24:48;6.65;;;4.68;;
40637;SDS011;26336;44.696;10.622;2023-07-16T08:27:55;7.80;;;4.90;;
40637;SDS011;26336;44.696;10.622;2023-07-16T08:30:59;7.63;;;4.72;;
40637;SDS011;26336;44.696;10.622;2023-07-16T08:34:02;7.28;;;5.07;;
40637;SDS011;26336;44.696;10.622;2023-07-16T08:37:06;7.47;;;4.93;;
40637;SDS011;26336;44.696;10.622;2023-07-16T08:40:11;8.25;;;5.13;;
40637;SDS011;26336;44.696;10.622;2023-07-16T08:43:16;4.95;;;4.50;;
40637;SDS011;26336;44.696;10.622;2023-07-16T08:46:22;7.32;;;4.50;;
40637;SDS011;26336;44.696;10.622;2023-07-16T08:49:27;9.05;;;4.68;;
40637;SDS011;26336;44.696;10.622;2023-07-16T08:52:33;6.82;;;4.30;;
40637;SDS011;26336;44.696;10.622;2023-07-16T08:55:37;8.50;;;4.85;;
40637;SDS011;26336;44.696;10.622;2023-07-16T08:58:42;5.75;;;4.60;;
40637;SDS011;26336;44.696;10.622;2023-07-16T09:01:48;9.43;;;4.32;;
40637;SDS011;26336;44.696;10.622;2023-07-16T09:04:52;7.57;;;4.55;;
40637;SDS011;26336;44.696;10.622;2023-07-16T09:07:58;5.13;;;3.83;;
40637;SDS011;26336;44.696;10.622;2023-07-16T09:11:01;9.30;;;4.10;;
40637;SDS011;26336;44.696;10.622;2023-07-16T09:14:05;6.00;;;4.57;;
40637;SDS011;26336;44.696;10.622;2023-07-16T09:17:09;6.38;;;4.38;;
40637;SDS011;26336;44.696;10.622;2023-07-16T09:20:17;7.80;;;4.32;;
40637;SDS011;26336;44.696;10.622;2023-07-16T09:23:25;4.95;;;3.72;;
40637;SDS011;26336;44.696;10.622;2023-07-16T09:26:33;6.18;;;4.28;;
40637;SDS011;26336;44.696;10.622;2023-07-16T09:29:39;8.32;;;4.53;;
40637;SDS011;26336;44.696;10.622;2023-07-16T09:32:44;6.05;;;4.50;;
40637;SDS011;26336;44.696;10.622;2023-07-16T09:35:50;5.60;;;4.22;;
40637;SDS011;26336;44.696;10.622;2023-07-16T09:38:54;5.70;;;4.40;;
40637;SDS011;26336;44.696;10.622;2023-07-16T09:42:00;7.93;;;4.72;;
40637;SDS011;26336;44.696;10.622;2023-07-16T09:45:06;5.38;;;4.18;;
40637;SDS011;26336;44.696;10.622;2023-07-16T09:48:12;7.65;;;4.30;;
40637;SDS011;26336;44.696;10.622;2023-07-16T09:51:17;7.85;;;4.47;;
40637;SDS011;26336;44.696;10.622;2023-07-16T09:54:23;6.03;;;4.50;;
40637;SDS011;26336;44.696;10.622;2023-07-16T09:57:34;6.35;;;4.20;;
40637;SDS011;26336;44.696;10.622;2023-07-16T10:00:40;6.53;;;3.80;;
40637;SDS011;26336;44.696;10.622;2023-07-16T10:03:49;6.25;;;4.85;;
40637;SDS011;26336;44.696;10.622;2023-07-16T10:07:00;9.93;;;4.72;;
40637;SDS011;26336;44.696;10.622;2023-07-16T10:10:07;5.10;;;4.03;;
40637;SDS011;26336;44.696;10.622;2023-07-16T10:13:12;7.72;;;4.50;;
40637;SDS011;26336;44.696;10.622;2023-07-16T10:16:20;8.48;;;4.45;;
40637;SDS011;26336;44.696;10.622;2023-07-16T10:19:25;7.72;;;4.63;;
40637;SDS011;26336;44.696;10.622;2023-07-16T10:25:36;8.15;;;3.63;;
40637;SDS011;26336;44.696;10.622;2023-07-16T10:28:40;7.90;;;4.55;;
40637;SDS011;26336;44.696;10.622;2023-07-16T10:31:44;7.28;;;3.92;;
40637;SDS011;26336;44.696;10.622;2023-07-16T10:34:49;6.45;;;4.57;;
40637;SDS011;26336;44.696;10.622;2023-07-16T10:37:54;5.15;;;3.92;;
40637;SDS011;26336;44.696;10.622;2023-07-16T10:40:58;6.70;;;4.13;;
40637;SDS011;26336;44.696;10.622;2023-07-16T10:44:02;5.15;;;4.07;;
40637;SDS011;26336;44.696;10.622;2023-07-16T10:47:06;6.13;;;4.28;;
40637;SDS011;26336;44.696;10.622;2023-07-16T10:50:11;6.32;;;4.25;;
40637;SDS011;26336;44.696;10.622;2023-07-16T10:53:15;7.32;;;4.10;;
40637;SDS011;26336;44.696;10.622;2023-07-16T10:56:22;5.60;;;4.22;;
40637;SDS011;26336;44.696;10.622;2023-07-16T10:59:26;5.20;;;4.25;;
40637;SDS011;26336;44.696;10.622;2023-07-16T11:02:31;6.53;;;4.63;;
40637;SDS011;26336;44.696;10.622;2023-07-16T11:05:35;5.03;;;3.63;;
40637;SDS011;26336;44.696;10.622;2023-07-16T11:08:39;8.13;;;4.63;;
40637;SDS011;26336;44.696;10.622;2023-07-16T11:11:43;6.78;;;4.15;;
40637;SDS011;26336;44.696;10.622;2023-07-16T11:14:48;6.10;;;4.15;;
40637;SDS011;26336;44.696;10.622;2023-07-16T11:17:56;4.78;;;4.25;;
40637;SDS011;26336;44.696;10.622;2023-07-16T11:21:00;7.20;;;4.38;;
40637;SDS011;26336;44.696;10.622;2023-07-16T11:24:08;7.40;;;4.65;;
40637;SDS011;26336;44.696;10.622;2023-07-16T11:27:17;5.35;;;4.47;;
40637;SDS011;26336;44.696;10.622;2023-07-16T11:30:31;5.90;;;4.28;;
40637;SDS011;26336;44.696;10.622;2023-07-16T11:33:36;5.93;;;4.68;;
40637;SDS011;26336;44.696;10.622;2023-07-16T11:36:41;7.63;;;4.50;;
40637;SDS011;26336;44.696;10.622;2023-07-16T11:39:45;7.50;;;4.43;;
40637;SDS011;26336;44.696;10.622;2023-07-16T11:42:49;7.47;;;4.18;;
40637;SDS011;26336;44.696;10.622;2023-07-16T11:45:53;7.85;;;4.40;;
40637;SDS011;26336;44.696;10.622;2023-07-16T11:48:57;4.78;;;4.10;;
40637;SDS011;26336;44.696;10.622;2023-07-16T11:52:01;5.25;;;4.00;;
40637;SDS011;26336;44.696;10.622;2023-07-16T11:55:06;6.03;;;4.03;;
40637;SDS011;26336;44.696;10.622;2023-07-16T11:58:11;5.93;;;4.00;;
40637;SDS011;26336;44.696;10.622;2023-07-16T12:01:15;5.40;;;3.95;;
40637;SDS011;26336;44.696;10.622;2023-07-16T12:04:19;7.53;;;4.43;;
40637;SDS011;26336;44.696;10.622;2023-07-16T12:07:31;11.48;;;4.72;;
40637;SDS011;26336;44.696;10.622;2023-07-16T12:10:36;6.85;;;4.55;;
40637;SDS011;26336;44.696;10.622;2023-07-16T12:13:41;5.13;;;4.28;;
40637;SDS011;26336;44.696;10.622;2023-07-16T12:16:45;5.65;;;4.00;;
40637;SDS011;26336;44.696;10.622;2023-07-16T12:19:49;5.43;;;4.25;;
40637;SDS011;26336;44.696;10.622;2023-07-16T12:22:53;5.93;;;4.32;;
40637;SDS011;26336;44.696;10.622;2023-07-16T12:25:57;7.50;;;4.20;;
40637;SDS011;26336;44.696;10.622;2023-07-16T12:29:02;7.47;;;5.38;;
40637;SDS011;26336;44.696;10.622;2023-07-16T12:32:07;7.00;;;5.00;;
40637;SDS011;26336;44.696;10.622;2023-07-16T12:35:11;7.38;;;4.25;;
40637;SDS011;26336;44.696;10.622;2023-07-16T12:38:15;5.72;;;5.10;;
40637;SDS011;26336;44.696;10.622;2023-07-16T12:41:19;7.38;;;5.00;;
40637;SDS011;26336;44.696;10.622;2023-07-16T12:44:23;5.57;;;4.60;;
40637;SDS011;26336;44.696;10.622;2023-07-16T12:47:27;8.82;;;5.53;;
40637;SDS011;26336;44.696;10.622;2023-07-16T12:50:31;7.95;;;4.70;;
40637;SDS011;26336;44.696;10.622;2023-07-16T12:53:35;7.13;;;5.07;;
40637;SDS011;26336;44.696;10.622;2023-07-16T12:56:42;5.07;;;4.57;;
40637;SDS011;26336;44.696;10.622;2023-07-16T12:59:46;7.90;;;5.25;;
40637;SDS011;26336;44.696;10.622;2023-07-16T13:02:50;4.55;;;4.15;;
40637;SDS011;26336;44.696;10.622;2023-07-16T13:05:54;8.50;;;4.93;;
40637;SDS011;26336;44.696;10.622;2023-07-16T13:09:00;6.30;;;4.70;;
40637;SDS011;26336;44.696;10.622;2023-07-16T13:12:04;6.78;;;5.25;;
40637;SDS011;26336;44.696;10.622;2023-07-16T13:15:12;6.00;;;5.35;;
40637;SDS011;26336;44.696;10.622;2023-07-16T13:18:16;6.13;;;5.30;;
40637;SDS011;26336;44.696;10.622;2023-07-16T13:21:21;10.60;;;5.25;;
40637;SDS011;26336;44.696;10.622;2023-07-16T13:24:25;8.35;;;5.55;;
40637;SDS011;26336;44.696;10.622;2023-07-16T13:27:29;7.45;;;5.25;;
40637;SDS011;26336;44.696;10.622;2023-07-16T13:30:33;10.80;;;5.90;;
40637;SDS011;26336;44.696;10.622;2023-07-16T13:33:37;10.90;;;5.18;;
40637;SDS011;26336;44.696;10.622;2023-07-16T13:36:41;6.45;;;5.05;;
40637;SDS011;26336;44.696;10.622;2023-07-16T13:39:45;6.30;;;5.13;;
40637;SDS011;26336;44.696;10.622;2023-07-16T13:42:49;7.55;;;4.93;;
40637;SDS011;26336;44.696;10.622;2023-07-16T13:45:53;6.05;;;4.55;;
40637;SDS011;26336;44.696;10.622;2023-07-16T13:48:57;8.07;;;5.22;;
40637;SDS011;26336;44.696;10.622;2023-07-16T13:52:03;9.00;;;4.97;;
40637;SDS011;26336;44.696;10.622;2023-07-16T13:55:07;6.93;;;5.22;;
40637;SDS011;26336;44.696;10.622;2023-07-16T13:58:12;6.63;;;5.20;;
40637;SDS011;26336;44.696;10.622;2023-07-16T14:01:18;7.93;;;5.63;;
40637;SDS011;26336;44.696;10.622;2023-07-16T14:04:22;13.13;;;6.13;;
40637;SDS011;26336;44.696;10.622;2023-07-16T14:07:25;7.65;;;5.90;;
40637;SDS011;26336;44.696;10.622;2023-07-16T14:10:29;7.30;;;4.95;;
40637;SDS011;26336;44.696;10.622;2023-07-16T14:13:33;9.20;;;6.13;;
40637;SDS011;26336;44.696;10.622;2023-07-16T14:16:43;8.05;;;5.25;;
40637;SDS011;26336;44.696;10.622;2023-07-16T14:19:50;7.60;;;5.75;;
40637;SDS011;26336;44.696;10.622;2023-07-16T14:22:54;8.63;;;5.70;;
40637;SDS011;26336;44.696;10.622;2023-07-16T14:25:58;6.88;;;5.07;;
40637;SDS011;26336;44.696;10.622;2023-07-16T14:29:02;5.55;;;4.60;;
40637;SDS011;26336;44.696;10.622;2023-07-16T14:32:06;11.20;;;5.82;;
40637;SDS011;26336;44.696;10.622;2023-07-16T14:35:10;7.47;;;5.32;;
40637;SDS011;26336;44.696;10.622;2023-07-16T14:38:14;9.63;;;5.25;;
40637;SDS011;26336;44.696;10.622;2023-07-16T14:41:19;9.50;;;5.38;;
40637;SDS011;26336;44.696;10.622;2023-07-16T14:44:23;8.30;;;5.72;;
40637;SDS011;26336;44.696;10.622;2023-07-16T14:47:26;6.05;;;4.57;;
40637;SDS011;26336;44.696;10.622;2023-07-16T14:50:30;6.07;;;4.63;;
40637;SDS011;26336;44.696;10.622;2023-07-16T14:53:34;6.65;;;4.65;;
40637;SDS011;26336;44.696;10.622;2023-07-16T14:56:38;9.88;;;5.03;;
40637;SDS011;26336;44.696;10.622;2023-07-16T14:59:43;7.03;;;4.32;;
40637;SDS011;26336;44.696;10.622;2023-07-16T15:02:47;6.95;;;4.50;;
40637;SDS011;26336;44.696;10.622;2023-07-16T15:05:55;8.15;;;5.03;;
40637;SDS011;26336;44.696;10.622;2023-07-16T15:09:00;9.02;;;4.10;;
40637;SDS011;26336;44.696;10.622;2023-07-16T15:12:07;9.15;;;4.30;;
40637;SDS011;26336;44.696;10.622;2023-07-16T15:15:13;7.68;;;4.53;;
40637;SDS011;26336;44.696;10.622;2023-07-16T15:18:18;9.77;;;5.50;;
40637;SDS011;26336;44.696;10.622;2023-07-16T15:21:23;5.25;;;4.07;;
40637;SDS011;26336;44.696;10.622;2023-07-16T15:24:27;8.13;;;4.45;;
40637;SDS011;26336;44.696;10.622;2023-07-16T15:27:30;7.00;;;3.92;;
40637;SDS011;26336;44.696;10.622;2023-07-16T15:30:34;6.82;;;3.85;;
40637;SDS011;26336;44.696;10.622;2023-07-16T15:33:39;8.32;;;4.32;;
40637;SDS011;26336;44.696;10.622;2023-07-16T15:36:43;6.07;;;3.92;;
40637;SDS011;26336;44.696;10.622;2023-07-16T15:39:46;6.75;;;4.50;;
40637;SDS011;26336;44.696;10.622;2023-07-16T15:42:50;8.60;;;4.57;;
40637;SDS011;26336;44.696;10.622;2023-07-16T15:45:56;9.32;;;4.75;;
40637;SDS011;26336;44.696;10.622;2023-07-16T15:49:00;7.85;;;4.63;;
40637;SDS011;26336;44.696;10.622;2023-07-16T15:52:04;7.55;;;5.28;;
40637;SDS011;26336;44.696;10.622;2023-07-16T15:58:51;7.78;;;4.63;;
40637;SDS011;26336;44.696;10.622;2023-07-16T16:01:57;7.82;;;4.47;;
40637;SDS011;26336;44.696;10.622;2023-07-16T16:05:01;7.00;;;4.68;;
40637;SDS011;26336;44.696;10.622;2023-07-16T16:11:18;7.80;;;4.97;;
40637;SDS011;26336;44.696;10.622;2023-07-16T16:14:24;6.47;;;5.07;;
40637;SDS011;26336;44.696;10.622;2023-07-16T16:17:28;10.13;;;5.53;;
40637;SDS011;26336;44.696;10.622;2023-07-16T16:20:32;7.50;;;4.90;;
40637;SDS011;26336;44.696;10.622;2023-07-16T16:23:36;7.15;;;5.38;;
40637;SDS011;26336;44.696;10.622;2023-07-16T16:26:41;8.52;;;4.88;;
40637;SDS011;26336;44.696;10.622;2023-07-16T16:29:45;7.43;;;5.10;;
40637;SDS011;26336;44.696;10.622;2023-07-16T16:32:48;8.70;;;4.65;;
40637;SDS011;26336;44.696;10.622;2023-07-16T16:35:58;6.95;;;5.25;;
40637;SDS011;26336;44.696;10.622;2023-07-16T16:39:02;7.22;;;4.85;;
40637;SDS011;26336;44.696;10.622;2023-07-16T16:42:06;8.15;;;5.32;;
40637;SDS011;26336;44.696;10.622;2023-07-16T16:45:10;6.60;;;4.88;;
40637;SDS011;26336;44.696;10.622;2023-07-16T16:48:15;10.80;;;5.38;;
40637;SDS011;26336;44.696;10.622;2023-07-16T16:51:19;9.30;;;5.78;;
40637;SDS011;26336;44.696;10.622;2023-07-16T16:54:23;7.88;;;5.18;;
40637;SDS011;26336;44.696;10.622;2023-07-16T16:57:27;7.25;;;5.55;;
40637;SDS011;26336;44.696;10.622;2023-07-16T17:00:32;8.23;;;4.82;;
40637;SDS011;26336;44.696;10.622;2023-07-16T17:03:36;11.30;;;5.60;;
40637;SDS011;26336;44.696;10.622;2023-07-16T17:06:40;7.18;;;5.43;;
40637;SDS011;26336;44.696;10.622;2023-07-16T17:09:44;12.15;;;5.80;;
40637;SDS011;26336;44.696;10.622;2023-07-16T17:12:49;7.35;;;5.05;;
40637;SDS011;26336;44.696;10.622;2023-07-16T17:15:52;10.55;;;5.30;;
40637;SDS011;26336;44.696;10.622;2023-07-16T17:18:56;7.13;;;4.90;;
40637;SDS011;26336;44.696;10.622;2023-07-16T17:22:00;9.63;;;5.22;;
40637;SDS011;26336;44.696;10.622;2023-07-16T17:25:05;8.73;;;5.47;;
40637;SDS011;26336;44.696;10.622;2023-07-16T17:28:10;11.43;;;5.03;;
40637;SDS011;26336;44.696;10.622;2023-07-16T17:31:14;8.50;;;4.75;;
40637;SDS011;26336;44.696;10.622;2023-07-16T17:34:18;6.97;;;4.70;;
40637;SDS011;26336;44.696;10.622;2023-07-16T17:37:23;8.13;;;4.47;;
40637;SDS011;26336;44.696;10.622;2023-07-16T17:40:28;7.95;;;4.43;;
40637;SDS011;26336;44.696;10.622;2023-07-16T17:43:32;9.43;;;5.18;;
40637;SDS011;26336;44.696;10.622;2023-07-16T17:46:36;5.72;;;4.50;;
40637;SDS011;26336;44.696;10.622;2023-07-16T17:49:40;5.75;;;4.40;;
40637;SDS011;26336;44.696;10.622;2023-07-16T17:52:44;8.98;;;5.18;;
40637;SDS011;26336;44.696;10.622;2023-07-16T17:55:48;6.85;;;4.72;;
40637;SDS011;26336;44.696;10.622;2023-07-16T17:58:53;8.48;;;5.10;;
40637;SDS011;26336;44.696;10.622;2023-07-16T18:01:57;7.53;;;4.60;;
40637;SDS011;26336;44.696;10.622;2023-07-16T18:05:00;6.07;;;4.40;;
40637;SDS011;26336;44.696;10.622;2023-07-16T18:08:04;9.07;;;4.45;;
40637;SDS011;26336;44.696;10.622;2023-07-16T18:11:09;8.07;;;4.43;;
40637;SDS011;26336;44.696;10.622;2023-07-16T18:14:13;8.05;;;4.30;;
40637;SDS011;26336;44.696;10.622;2023-07-16T18:17:17;7.90;;;3.90;;
40637;SDS011;26336;44.696;10.622;2023-07-16T18:20:21;8.15;;;4.07;;
40637;SDS011;26336;44.696;10.622;2023-07-16T18:23:26;7.07;;;3.40;;
40637;SDS011;26336;44.696;10.622;2023-07-16T18:26:30;7.63;;;3.72;;
40637;SDS011;26336;44.696;10.622;2023-07-16T18:29:34;5.80;;;4.10;;
40637;SDS011;26336;44.696;10.622;2023-07-16T18:32:38;7.28;;;4.40;;
40637;SDS011;26336;44.696;10.622;2023-07-16T18:35:42;10.77;;;3.90;;
40637;SDS011;26336;44.696;10.622;2023-07-16T18:38:48;6.82;;;4.43;;
40637;SDS011;26336;44.696;10.622;2023-07-16T18:41:52;6.28;;;3.63;;
40637;SDS011;26336;44.696;10.622;2023-07-16T18:44:56;6.97;;;3.95;;